Time;durP1;ratioP1;P1;durP2;ratioP2;P2;SDS_P1;SDS_P2;PMS_P1;PMS_P2;Temp;Humidity;BMP_temperature;BMP_pressure;BME280_temperature;BME280_humidity;BME280_pressure;Samples;Min_cycle;Max_cycle;Signal;HPM_P1;HPM_P2
2022/02/09 00:09:22;;;;;;;3.40;1.95;;;;;;;19.32;42.25;102048.19;5008746;28;20046;-44
2022/02/09 00:14:40;;;;;;;3.80;2.05;;;;;;;19.29;42.61;102051.97;5000874;28;20037;-43
2022/02/09 00:38:33;;;;;;;7.40;2.10;;;;;;;19.27;42.81;102053.94;5004636;28;20029;-41
2022/02/09 00:43:54;;;;;;;3.92;2.53;;;;;;;19.26;42.75;102048.84;4990529;28;20790;-40
2022/02/09 01:02:59;;;;;;;5.30;2.38;;;;;;;19.17;42.93;102062.03;4998245;28;20064;-42
2022/02/09 01:11:28;;;;;;;2.55;1.15;;;;;;;19.15;42.58;102079.03;4991070;28;20575;-46
2022/02/09 01:44:25;;;;;;;2.88;1.83;;;;;;;19.03;42.09;102072.38;4981841;28;20168;-42
2022/02/09 01:57:15;;;;;;;2.33;1.42;;;;;;;18.93;42.40;102061.13;4978518;28;20095;-41
2022/02/09 01:59:43;;;;;;;3.55;1.38;;;;;;;18.96;42.25;102055.53;4982663;28;20085;-41
2022/02/09 02:02:09;;;;;;;2.83;1.42;;;;;;;18.97;42.01;102062.47;4982205;28;20030;-42
2022/02/09 02:04:34;;;;;;;3.30;1.55;;;;;;;18.96;41.88;102061.63;4989207;28;20041;-40
2022/02/09 02:07:03;;;;;;;3.30;1.38;;;;;;;18.97;41.93;102071.22;4982606;28;20030;-41
2022/02/09 02:09:33;;;;;;;2.75;1.40;;;;;;;18.97;41.98;102062.47;4949427;28;20034;-39
2022/02/09 02:12:08;;;;;;;3.58;1.73;;;;;;;18.95;41.92;102062.63;5278146;23;20055;-40
2022/02/09 02:14:43;;;;;;;3.88;1.67;;;;;;;18.94;42.00;102057.50;4930176;29;20035;-42
2022/02/09 02:17:23;;;;;;;2.97;1.17;;;;;;;18.92;41.99;102056.81;4930086;29;20036;-43
2022/02/09 02:19:55;;;;;;;3.15;1.13;;;;;;;18.88;42.06;102054.53;4928961;29;20366;-41
2022/02/09 02:44:08;;;;;;;3.05;1.23;;;;;;;18.86;41.92;102072.34;4929813;29;20051;-47
2022/02/09 03:13:12;;;;;;;2.10;1.00;;;;;;;18.81;42.15;102056.16;4957534;28;20525;-41
2022/02/09 03:20:51;;;;;;;2.50;1.25;;;;;;;18.80;42.22;102051.03;4967725;28;20038;-40
2022/02/09 03:23:40;;;;;;;2.13;1.00;;;;;;;18.79;42.03;102055.50;4967053;28;20089;-41
2022/02/09 03:45:10;;;;;;;2.08;1.05;;;;;;;18.68;41.91;102061.06;4967634;28;20241;-40
2022/02/09 03:52:51;;;;;;;3.05;1.60;;;;;;;18.67;41.84;102046.19;4967847;28;20109;-40
2022/02/09 03:55:25;;;;;;;2.03;0.80;;;;;;;18.67;41.68;102046.19;4967023;28;20120;-42
2022/02/09 03:57:51;;;;;;;2.10;1.00;;;;;;;18.67;41.61;102045.38;4967179;28;20045;-42
2022/02/09 04:00:21;;;;;;;3.10;0.77;;;;;;;18.67;41.73;102046.19;4967215;28;20026;-42
2022/02/09 04:02:48;;;;;;;2.05;0.80;;;;;;;18.66;41.54;102041.91;4967310;28;20050;-43
2022/02/09 04:05:15;;;;;;;1.60;0.98;;;;;;;18.66;41.61;102036.63;4966870;28;20110;-40
2022/02/09 04:07:40;;;;;;;3.88;1.55;;;;;;;18.66;41.58;102030.53;4967212;28;20030;-41
2022/02/09 04:10:09;;;;;;;2.22;1.08;;;;;;;18.66;41.54;102033.97;4967011;28;20039;-40
2022/02/09 04:36:56;;;;;;;2.35;0.95;;;;;;;18.54;41.89;102036.03;4970518;28;20104;-41
2022/02/09 04:39:29;;;;;;;4.10;0.90;;;;;;;18.53;41.87;102033.56;4970557;28;20042;-40
2022/02/09 04:49:40;;;;;;;1.83;0.85;;;;;;;18.51;41.76;102024.97;4970156;28;20086;-41
2022/02/09 05:00:07;;;;;;;2.10;1.00;;;;;;;18.51;41.43;102030.25;4970011;28;20058;-42
2022/02/09 05:19:37;;;;;;;4.25;0.60;;;;;;;18.65;41.42;102019.13;4970063;28;20125;-40
2022/02/09 05:24:39;;;;;;;3.03;0.70;;;;;;;18.66;41.19;102018.16;4969992;28;20560;-40
2022/02/09 05:27:17;;;;;;;1.73;0.80;;;;;;;18.71;41.52;102025.59;4952115;28;20055;-43
2022/02/09 05:29:43;;;;;;;3.80;0.98;;;;;;;18.76;41.80;102034.69;4952585;28;20123;-41
2022/02/09 05:32:09;;;;;;;4.40;0.70;;;;;;;18.79;41.85;102033.53;4969929;28;20202;-43
2022/02/09 05:34:34;;;;;;;1.88;1.00;;;;;;;18.80;41.77;102025.47;4970402;28;20811;-41
2022/02/09 05:37:04;;;;;;;3.10;0.80;;;;;;;18.81;41.68;102026.28;4970167;28;20019;-41
2022/02/09 05:39:30;;;;;;;1.52;0.60;;;;;;;18.82;41.58;102028.78;4969226;28;20470;-41
2022/02/09 05:41:55;;;;;;;3.45;0.60;;;;;;;18.85;41.53;102032.91;4970013;28;20069;-41
2022/02/09 05:44:21;;;;;;;2.25;0.68;;;;;;;18.92;41.61;102030.41;4969556;28;20030;-42
2022/02/09 05:49:32;;;;;;;4.90;0.95;;;;;;;18.99;41.76;102026.16;4969715;28;20042;-40
2022/02/09 05:59:45;;;;;;;4.45;0.52;;;;;;;19.25;41.70;102036.59;4969771;28;20419;-41
2022/02/09 06:02:10;;;;;;;1.30;0.50;;;;;;;19.28;41.44;102029.19;4965186;28;20314;-41
2022/02/09 06:04:38;;;;;;;4.55;0.73;;;;;;;19.33;41.45;102032.16;4968167;28;20081;-42
2022/02/09 06:07:04;;;;;;;1.13;0.65;;;;;;;19.37;41.39;102030.84;4950645;28;20047;-45
2022/02/09 06:09:30;;;;;;;2.50;1.00;;;;;;;19.42;41.37;102036.44;4967979;28;20046;-41
2022/02/09 06:12:12;;;;;;;2.67;0.50;;;;;;;19.46;41.33;102031.66;4966418;28;20410;-41
2022/02/09 06:19:50;;;;;;;1.40;0.55;;;;;;;19.59;41.14;102060.28;4968918;28;20329;-43
2022/02/09 06:22:16;;;;;;;4.40;0.50;;;;;;;19.64;40.94;102061.44;4968041;28;20043;-42
2022/02/09 06:24:42;;;;;;;3.40;0.60;;;;;;;19.68;40.78;102060.13;4967531;28;20030;-42
2022/02/09 06:27:12;;;;;;;1.48;0.80;;;;;;;19.72;40.68;102052.69;4966598;28;20031;-54
2022/02/09 06:29:40;;;;;;;1.58;0.60;;;;;;;19.75;40.75;102063.75;4967564;28;20399;-41
2022/02/09 06:32:09;;;;;;;1.42;0.50;;;;;;;19.78;40.63;102055.50;4950413;28;20031;-43
2022/02/09 06:34:39;;;;;;;1.27;0.50;;;;;;;19.81;40.57;102056.97;4968325;28;20422;-41
2022/02/09 06:39:59;;;;;;;2.75;0.75;;;;;;;19.85;40.42;102056.44;4943373;28;20038;-41
2022/02/09 06:42:25;;;;;;;1.88;0.60;;;;;;;19.91;40.34;102046.19;4967764;28;20053;-42
2022/02/09 06:44:53;;;;;;;3.22;0.60;;;;;;;19.92;40.16;102051.31;4966869;28;20122;-41
2022/02/09 06:47:23;;;;;;;1.77;0.57;;;;;;;19.94;40.22;102051.97;4967202;28;20058;-42
2022/02/09 06:49:57;;;;;;;2.15;0.63;;;;;;;19.97;40.05;102045.53;4949666;28;20030;-41
2022/02/09 06:52:22;;;;;;;3.10;0.55;;;;;;;20.00;39.97;102042.56;4964117;28;20039;-41
2022/02/09 06:55:07;;;;;;;2.85;1.00;;;;;;;20.03;40.01;102043.03;4967427;28;20128;-44
2022/02/09 06:57:46;;;;;;;0.95;0.40;;;;;;;20.05;39.87;102054.28;4960009;28;20107;-41
2022/02/09 07:00:13;;;;;;;1.50;0.73;;;;;;;20.06;40.01;102039.25;4949250;28;20035;-41
2022/02/09 07:02:41;;;;;;;1.20;0.40;;;;;;;20.09;40.04;102042.38;4957068;28;20410;-43
2022/02/09 07:05:11;;;;;;;2.92;0.77;;;;;;;20.11;39.80;102039.56;4963586;28;20043;-41
2022/02/09 07:07:37;;;;;;;2.47;0.60;;;;;;;20.13;39.75;102040.22;4968189;28;20031;-41
2022/02/09 07:10:03;;;;;;;1.00;0.40;;;;;;;20.13;39.78;102046.34;4967642;28;20433;-41
2022/02/09 07:12:29;;;;;;;0.90;0.40;;;;;;;20.13;39.74;102046.34;4967733;28;20074;-42
2022/02/09 07:14:54;;;;;;;1.23;0.40;;;;;;;20.15;39.76;102056.75;4965698;28;20042;-41
2022/02/09 07:17:20;;;;;;;1.33;0.43;;;;;;;20.14;39.81;102055.94;4942828;28;20190;-41
2022/02/09 07:19:53;;;;;;;1.10;0.50;;;;;;;20.15;39.70;102065.50;4965015;28;20062;-41
2022/02/09 07:22:24;;;;;;;1.50;0.60;;;;;;;20.15;39.83;102062.03;4967648;28;20042;-41
2022/02/09 07:25:05;;;;;;;2.58;0.60;;;;;;;20.18;39.61;102059.06;4943808;28;20074;-42
2022/02/09 07:30:16;;;;;;;2.75;0.52;;;;;;;20.19;40.21;102058.91;4964730;28;20137;-42
2022/02/09 07:32:41;;;;;;;3.35;1.08;;;;;;;20.19;40.20;102047.47;4965489;28;20509;-42
2022/02/09 07:35:07;;;;;;;6.32;0.98;;;;;;;20.20;40.44;102057.91;4965554;28;20031;-41
2022/02/09 07:37:33;;;;;;;5.70;0.85;;;;;;;20.22;40.75;102060.38;4964020;28;20042;-41
2022/02/09 07:39:59;;;;;;;3.85;0.80;;;;;;;20.21;40.65;102064.03;4966030;28;20041;-42
2022/02/09 07:42:28;;;;;;;7.07;0.57;;;;;;;20.18;40.60;102067.00;4947182;28;20034;-43
2022/02/09 07:45:06;;;;;;;3.88;0.60;;;;;;;20.16;40.76;102064.53;4948185;29;20442;-45
2022/02/09 07:53:44;;;;;;;2.67;0.60;;;;;;;20.07;41.04;102052.28;4925928;29;20487;-49
2022/02/09 07:55:52;;;;;;;1.15;0.40;;;;;;;20.05;41.25;102049.00;4924113;29;20115;-45
2022/02/09 07:58:18;;;;;;;2.13;0.60;;;;;;;20.04;41.36;102054.44;4925968;29;20036;-40
2022/02/09 08:00:45;;;;;;;2.83;0.60;;;;;;;20.02;41.58;102054.63;4917163;29;20543;-42
2022/02/09 08:03:11;;;;;;;7.85;1.00;;;;;;;20.02;41.61;102065.19;4907136;29;20043;-42
2022/02/09 08:05:37;;;;;;;1.92;0.55;;;;;;;20.01;41.39;102062.72;4925582;29;20443;-41
2022/02/09 08:08:03;;;;;;;2.15;0.50;;;;;;;19.99;41.20;102060.25;4923690;29;20077;-43
2022/02/09 08:32:35;;;;;;;2.83;1.45;;;;;;;19.69;32.71;102055.66;4962234;28;20078;-44
2022/02/09 08:34:43;;;;;;;5.32;1.67;;;;;;;19.66;32.31;102054.16;4971022;28;20035;-43
2022/02/09 08:37:09;;;;;;;2.42;1.30;;;;;;;19.65;31.89;102055.16;4965559;28;20025;-44
2022/02/09 08:39:35;;;;;;;2.28;1.10;;;;;;;19.65;31.62;102051.69;4970632;28;20039;-45
2022/02/09 08:42:00;;;;;;;2.28;1.17;;;;;;;19.64;31.78;102045.56;4964707;28;20061;-44
2022/02/09 08:44:26;;;;;;;2.20;1.20;;;;;;;19.64;32.10;102039.47;4968670;28;20524;-45
2022/02/09 08:46:52;;;;;;;3.38;0.80;;;;;;;19.63;32.31;102041.28;4969232;28;20027;-44
2022/02/09 08:49:18;;;;;;;6.35;1.05;;;;;;;19.63;32.76;102037.81;4969876;28;20188;-41
2022/02/09 08:51:44;;;;;;;4.10;1.15;;;;;;;19.61;33.29;102034.50;4970450;28;20466;-44
2022/02/09 08:54:11;;;;;;;4.82;1.08;;;;;;;19.61;33.55;102042.44;4969446;28;20105;-42
2022/02/09 08:56:38;;;;;;;5.93;0.93;;;;;;;19.61;33.85;102039.78;4970915;28;20070;-44
2022/02/09 08:59:05;;;;;;;3.20;0.93;;;;;;;19.59;34.14;102037.31;4954126;28;20671;-44
2022/02/09 09:04:03;;;;;;;2.20;0.90;;;;;;;19.54;34.60;102040.44;4969890;28;20043;-42
2022/02/09 09:06:30;;;;;;;3.10;1.10;;;;;;;19.54;34.78;102039.63;4969972;28;20034;-42
2022/02/09 10:00:33;;;;;;;0.90;0.47;;;;;;;19.36;37.35;102023.09;4969309;28;20101;-41
2022/02/09 10:03:34;;;;;;;1.30;0.57;;;;;;;19.34;37.40;102028.53;4968770;28;20370;-41
2022/02/09 10:34:24;;;;;;;3.05;0.73;;;;;;;19.18;38.69;102002.09;4964523;28;20366;-43
2022/02/09 10:36:54;;;;;;;1.05;0.50;;;;;;;19.19;38.67;102001.91;4967264;28;20039;-45
2022/02/09 10:39:26;;;;;;;1.73;0.60;;;;;;;19.19;38.59;101993.16;4969231;28;20236;-40
2022/02/09 10:42:11;;;;;;;1.08;0.55;;;;;;;19.18;38.76;101992.34;4964437;28;20429;-44
2022/02/09 10:45:03;;;;;;;1.08;0.57;;;;;;;19.15;38.84;101989.19;4947464;28;20035;-43
2022/02/09 10:47:31;;;;;;;1.50;0.50;;;;;;;19.15;38.91;101989.19;4969732;28;20818;-41
2022/02/09 10:50:09;;;;;;;0.93;0.40;;;;;;;19.13;38.93;101984.09;4962793;28;20121;-43
2022/02/09 10:52:41;;;;;;;3.85;0.77;;;;;;;19.14;38.95;101979.63;4966706;28;20128;-42
2022/02/09 10:55:30;;;;;;;1.63;0.50;;;;;;;19.12;39.22;101984.25;4953921;28;20034;-46
2022/02/09 10:57:57;;;;;;;3.55;0.68;;;;;;;19.14;39.09;101982.25;4949869;29;20045;-44
2022/02/09 11:00:24;;;;;;;1.50;0.65;;;;;;;19.15;39.22;101970.72;4949985;29;20043;-41
2022/02/09 11:02:50;;;;;;;1.95;0.45;;;;;;;19.15;39.30;101981.28;4949400;29;20070;-43
2022/02/09 11:05:20;;;;;;;3.28;0.75;;;;;;;19.14;39.26;101980.44;4948657;29;20499;-41
2022/02/09 11:07:47;;;;;;;1.65;0.68;;;;;;;19.14;39.25;101984.91;4948379;29;20122;-43
2022/02/09 11:10:13;;;;;;;5.82;0.82;;;;;;;19.13;39.05;101984.09;4948368;29;20035;-42
2022/02/09 11:12:40;;;;;;;1.38;0.60;;;;;;;19.12;39.19;101969.22;4948392;29;20062;-41
2022/02/09 11:15:07;;;;;;;2.45;0.50;;;;;;;19.12;39.04;101966.56;4948492;29;20090;-42
2022/02/09 11:17:33;;;;;;;2.50;0.98;;;;;;;19.12;39.15;101965.75;4948383;29;20393;-43
2022/02/09 11:19:59;;;;;;;2.90;1.02;;;;;;;19.10;39.11;101965.09;4948424;29;20102;-40
2022/02/09 11:22:28;;;;;;;3.08;0.60;;;;;;;19.07;39.05;101952.22;4948216;28;20534;-46
2022/02/09 11:25:32;;;;;;;2.90;1.52;;;;;;;19.02;39.32;101955.34;4948882;29;20046;-43
2022/02/09 11:28:16;;;;;;;1.75;0.93;;;;;;;19.00;39.42;101954.66;4936057;29;20047;-41
2022/02/09 11:30:59;;;;;;;1.92;0.65;;;;;;;19.00;39.37;101954.66;4948178;29;20370;-41
2022/02/09 11:33:32;;;;;;;2.58;0.73;;;;;;;19.01;39.38;101950.22;4948264;29;20031;-45
2022/02/09 11:38:52;;;;;;;2.13;0.70;;;;;;;18.99;39.48;101944.28;4948503;29;20031;-42
2022/02/09 11:41:32;;;;;;;4.25;0.73;;;;;;;19.00;39.53;101940.63;4948509;28;20066;-43
2022/02/09 11:44:07;;;;;;;3.05;0.80;;;;;;;18.98;39.55;101938.16;4957636;28;20206;-41
2022/02/09 11:46:50;;;;;;;2.00;0.63;;;;;;;19.00;39.57;101935.34;4943607;28;20035;-43
2022/02/09 12:00:04;;;;;;;1.38;0.55;;;;;;;18.99;40.26;101925.78;4967607;28;20038;-43
2022/02/09 12:19:05;;;;;;;1.75;0.68;;;;;;;18.95;38.63;101895.41;4970845;28;20466;-39
2022/02/09 12:21:55;;;;;;;1.75;0.75;;;;;;;18.93;38.18;101892.09;4949912;28;20026;-42
2022/02/09 12:24:29;;;;;;;3.38;0.80;;;;;;;18.93;37.92;101892.09;4950017;28;20773;-40
2022/02/09 12:27:07;;;;;;;1.75;0.75;;;;;;;18.90;37.57;101880.88;4966385;28;20093;-40
2022/02/09 12:29:40;;;;;;;2.05;0.88;;;;;;;18.90;37.28;101878.25;4961016;28;20141;-40
2022/02/09 12:32:15;;;;;;;1.75;0.70;;;;;;;18.88;37.61;101871.50;4944430;29;20118;-44
2022/02/09 12:34:56;;;;;;;3.23;1.13;;;;;;;18.86;38.13;101863.75;4967375;28;20492;-44
2022/02/09 12:37:22;;;;;;;1.85;0.90;;;;;;;18.87;38.15;101865.41;4970636;28;20045;-41
2022/02/09 12:39:52;;;;;;;2.45;0.70;;;;;;;18.88;38.27;101860.94;4970471;28;20027;-43
2022/02/09 12:42:19;;;;;;;2.78;0.50;;;;;;;18.88;38.46;101853.00;4970602;28;20039;-40
2022/02/09 12:45:06;;;;;;;1.98;0.75;;;;;;;18.86;38.94;101847.06;4969457;28;20038;-42
2022/02/09 12:47:43;;;;;;;1.40;0.70;;;;;;;18.86;38.99;101855.81;4968700;28;20122;-43
2022/02/09 12:50:11;;;;;;;1.73;0.93;;;;;;;18.85;39.07;101846.25;4952931;28;20035;-40
2022/02/09 12:52:41;;;;;;;5.28;1.00;;;;;;;18.84;39.13;101847.22;4969919;28;20411;-42
2022/02/09 12:55:19;;;;;;;2.10;0.80;;;;;;;18.84;39.32;101841.97;4952324;28;20394;-41
2022/02/09 12:57:57;;;;;;;1.45;0.60;;;;;;;18.84;39.35;101841.13;4952132;28;20089;-43
2022/02/09 13:00:40;;;;;;;4.05;0.80;;;;;;;18.82;39.27;101841.28;4951968;28;20055;-39
2022/02/09 13:03:34;;;;;;;2.75;0.90;;;;;;;18.80;39.59;101832.72;4968901;28;20149;-47
2022/02/09 13:06:03;;;;;;;4.07;0.70;;;;;;;18.82;39.64;101832.53;4966717;28;20097;-40
2022/02/09 13:08:30;;;;;;;4.07;0.80;;;;;;;18.83;39.85;101829.75;4966155;28;20152;-44
2022/02/09 13:11:18;;;;;;;2.90;1.02;;;;;;;18.84;40.49;101831.41;4967113;28;20093;-41
2022/02/09 13:13:50;;;;;;;3.70;0.90;;;;;;;18.87;40.99;101841.63;4969489;28;20093;-46
2022/02/09 13:19:55;;;;;;;4.30;0.70;;;;;;;18.90;41.91;101832.56;4953998;28;20242;-40
2022/02/09 14:10:16;;;;;;;4.28;1.95;;;;;;;18.78;40.43;101804.81;4969194;28;20067;-39
2022/02/09 14:13:12;;;;;;;9.98;4.80;;;;;;;18.77;40.50;101814.56;4939629;23;20152;-43
2022/02/09 14:18:27;;;;;;;6.93;2.78;;;;;;;18.76;40.58;101812.91;4994970;28;20097;-41
2022/02/09 14:34:56;;;;;;;3.38;1.80;;;;;;;18.78;40.68;101813.56;4988892;28;20541;-42
2022/02/09 14:58:26;;;;;;;3.28;1.33;;;;;;;18.69;40.98;101822.47;4989206;28;20354;-41
2022/02/09 15:01:07;;;;;;;2.03;1.05;;;;;;;18.69;41.04;101816.38;4971222;28;20034;-42
2022/02/09 15:08:35;;;;;;;3.40;1.38;;;;;;;18.66;41.04;101825.44;4988001;28;20813;-42
2022/02/09 15:13:58;;;;;;;2.72;1.23;;;;;;;18.65;41.03;101821.16;4988552;28;20046;-40
2022/02/09 15:16:29;;;;;;;2.45;1.25;;;;;;;18.64;41.14;101816.88;4987274;28;20034;-43
2022/02/09 15:24:29;;;;;;;1.52;0.70;;;;;;;18.63;41.19;101817.03;4985376;28;20096;-40
2022/02/09 15:26:57;;;;;;;1.48;0.70;;;;;;;18.62;41.06;101816.19;4985548;28;20030;-41
2022/02/09 15:29:22;;;;;;;2.28;1.13;;;;;;;18.64;41.40;101814.22;4969339;28;20134;-39
2022/02/09 15:31:58;;;;;;;5.40;1.30;;;;;;;18.65;41.49;101815.03;4986945;28;20038;-41
2022/02/09 15:34:47;;;;;;;2.97;1.40;;;;;;;18.64;41.39;101811.59;4972359;28;20067;-41
2022/02/09 15:37:19;;;;;;;2.55;1.00;;;;;;;18.65;41.42;101810.59;4982898;28;20442;-40
2022/02/09 15:39:54;;;;;;;1.63;0.85;;;;;;;18.65;41.56;101809.75;4986878;28;20037;-42
2022/02/09 15:59:18;;;;;;;3.10;1.00;;;;;;;18.65;41.63;101809.75;4980998;28;20069;-42
2022/02/09 16:23:00;;;;;;;12.13;1.33;;;;;;;18.75;41.97;101819.19;4986443;28;20084;-37
2022/02/09 16:45:05;;;;;;;15.68;5.70;;;;;;;19.32;45.43;101834.97;4966704;28;20263;-41
2022/02/09 16:50:14;;;;;;;12.97;4.77;;;;;;;19.83;48.46;101843.41;4963150;28;20050;-46
2022/02/09 16:52:56;;;;;;;25.70;6.80;;;;;;;20.15;50.52;101845.91;4967322;28;20041;-38
2022/02/09 17:19:31;;;;;;;9.40;3.33;;;;;;;20.13;49.95;101861.13;4990615;28;20133;-42
2022/02/09 17:21:57;;;;;;;10.20;3.42;;;;;;;20.13;49.35;101869.06;4990491;28;20064;-40
2022/02/09 17:24:22;;;;;;;10.65;3.78;;;;;;;20.13;48.91;101869.06;4972736;28;20153;-40
2022/02/09 17:26:48;;;;;;;6.68;3.35;;;;;;;20.13;48.76;101876.16;4990498;28;20029;-40
2022/02/09 17:29:19;;;;;;;6.03;2.65;;;;;;;20.13;48.41;101878.81;4990164;28;20076;-44
2022/02/09 17:34:42;;;;;;;5.75;2.20;;;;;;;20.11;48.04;101876.34;4992247;28;20046;-41
2022/02/09 17:37:27;;;;;;;9.13;2.75;;;;;;;20.10;47.80;101881.81;5009611;28;20500;-42
2022/02/09 17:53:32;;;;;;;7.68;2.88;;;;;;;20.08;46.72;101900.50;4988616;28;20115;-40
2022/02/09 17:56:07;;;;;;;8.95;2.42;;;;;;;20.11;46.60;101900.16;4971923;28;20026;-41
2022/02/09 17:58:40;;;;;;;4.93;2.63;;;;;;;20.11;46.49;101900.16;4989686;28;20038;-40
2022/02/09 18:01:06;;;;;;;4.75;2.67;;;;;;;20.09;46.12;101896.03;4973418;28;20579;-41
2022/02/09 18:03:32;;;;;;;4.57;2.20;;;;;;;20.08;46.13;101907.59;4988623;28;20088;-42
2022/02/09 18:06:09;;;;;;;5.22;2.00;;;;;;;20.06;46.05;101896.38;4971297;28;20125;-42
2022/02/09 18:08:51;;;;;;;6.95;2.20;;;;;;;20.04;46.09;101904.47;4987452;28;20220;-43
2022/02/09 18:11:38;;;;;;;5.20;2.47;;;;;;;20.02;46.00;101906.47;4984536;28;20072;-47
2022/02/09 18:14:26;;;;;;;3.97;2.25;;;;;;;19.99;45.88;101898.88;4989632;28;20062;-42
2022/02/09 18:26:03;;;;;;;4.57;1.90;;;;;;;19.89;45.69;101916.75;4941093;29;20072;-42
2022/02/09 18:30:56;;;;;;;8.93;1.90;;;;;;;19.85;45.36;101921.56;4946042;29;20182;-39
2022/02/09 19:00:24;;;;;;;3.55;2.15;;;;;;;19.73;44.31;101917.66;4910350;29;20036;-45
2022/02/09 19:05:32;;;;;;;5.53;2.70;;;;;;;19.72;44.30;101916.00;4926942;29;20032;-45
2022/02/09 19:16:45;;;;;;;3.75;1.67;;;;;;;19.71;44.09;101905.59;4926925;29;20103;-45
2022/02/09 19:27:02;;;;;;;2.92;1.48;;;;;;;19.64;44.03;101913.38;4987565;28;20045;-42
2022/02/09 19:30:14;;;;;;;3.78;1.60;;;;;;;19.62;44.09;101915.38;4987045;28;20044;-43
2022/02/09 19:48:23;;;;;;;3.35;1.63;;;;;;;19.62;43.20;101920.66;4964836;28;20042;-44
2022/02/09 19:51:09;;;;;;;2.58;1.20;;;;;;;19.63;43.04;101913.53;4963921;28;20026;-40
2022/02/09 19:54:03;;;;;;;5.47;1.48;;;;;;;19.61;42.95;101921.66;4964535;28;20574;-44
2022/02/09 19:56:29;;;;;;;3.50;1.45;;;;;;;19.60;42.90;101924.47;4963889;28;20535;-43
2022/02/09 19:58:59;;;;;;;3.63;1.50;;;;;;;19.58;42.76;101916.69;4964415;28;20462;-44
2022/02/09 20:01:32;;;;;;;6.18;1.90;;;;;;;19.59;42.60;101915.69;4948345;28;20128;-43
2022/02/09 20:03:58;;;;;;;3.95;1.65;;;;;;;19.57;42.65;101911.56;4948423;28;20062;-44
2022/02/09 20:06:24;;;;;;;2.05;1.30;;;;;;;19.58;42.47;101918.50;4965515;28;20137;-48
2022/02/09 20:08:50;;;;;;;2.83;1.25;;;;;;;19.56;42.56;101910.75;4968024;28;20057;-48
2022/02/09 20:11:17;;;;;;;7.53;1.27;;;;;;;19.55;42.59;101915.22;4961838;28;20034;-44
2022/02/09 20:13:44;;;;;;;4.25;1.25;;;;;;;19.55;42.44;101909.09;4989062;28;20212;-43
2022/02/09 20:16:09;;;;;;;2.53;1.67;;;;;;;19.53;42.63;101911.91;4990689;28;20106;-45
2022/02/09 20:18:35;;;;;;;2.45;1.00;;;;;;;19.52;42.59;101907.63;4990320;28;20113;-45
2022/02/09 20:21:01;;;;;;;2.95;1.52;;;;;;;19.52;42.64;101902.31;4986805;28;20034;-46
2022/02/09 20:23:31;;;;;;;4.07;1.20;;;;;;;19.51;42.58;101903.31;4969782;28;20031;-48
2022/02/09 20:25:58;;;;;;;2.28;1.08;;;;;;;19.49;42.60;101894.69;4985924;28;20121;-46
2022/02/09 20:28:24;;;;;;;3.47;1.80;;;;;;;19.49;42.74;101900.00;4972343;28;20026;-47
2022/02/09 20:30:57;;;;;;;23.67;2.50;;;;;;;19.47;42.40;101899.31;4990144;28;20340;-43
2022/02/09 20:33:30;;;;;;;20.67;2.35;;;;;;;19.45;42.38;101896.03;4972669;28;20046;-46
2022/02/09 20:35:56;;;;;;;6.95;1.70;;;;;;;19.44;42.43;101901.47;4988748;28;20366;-49
2022/02/09 20:38:25;;;;;;;5.50;2.00;;;;;;;19.42;42.23;101892.88;4971407;28;20097;-44
2022/02/09 20:40:55;;;;;;;5.55;2.05;;;;;;;19.40;42.14;101890.41;4960314;28;20129;-49
2022/02/09 20:43:23;;;;;;;2.92;1.52;;;;;;;19.40;42.16;101901.00;4988931;28;20034;-51
2022/02/09 20:45:52;;;;;;;3.70;1.52;;;;;;;19.39;42.09;101887.94;4990221;28;20034;-49
2022/02/09 20:48:23;;;;;;;6.32;1.92;;;;;;;19.38;42.08;101887.13;4972508;28;20037;-47
2022/02/09 20:50:49;;;;;;;3.25;1.60;;;;;;;19.35;42.05;101887.47;4972612;28;20497;-47
2022/02/09 20:53:15;;;;;;;2.85;1.73;;;;;;;19.35;42.07;101887.47;4989087;28;20022;-47
2022/02/09 20:55:41;;;;;;;9.07;2.30;;;;;;;19.35;42.02;101891.94;4988490;28;20026;-42
2022/02/09 20:58:07;;;;;;;3.05;1.85;;;;;;;19.34;42.03;101887.66;4989909;28;20039;-49
2022/02/09 21:00:40;;;;;;;4.93;2.15;;;;;;;19.32;41.93;101890.47;4990019;28;20027;-48
2022/02/09 21:11:15;;;;;;;4.50;2.67;;;;;;;19.27;42.04;101887.47;4989743;28;20716;-48
2022/02/09 21:16:18;;;;;;;7.88;3.20;;;;;;;19.26;42.06;101877.09;4990177;28;20046;-50
2022/02/09 21:52:18;;;;;;;11.45;5.68;;;;;;;19.44;43.41;101844.16;4988415;28;20053;-51
2022/02/09 21:54:20;;;;;;;7.50;5.18;;;;;;;19.45;44.32;101840.53;4985390;28;21039;-48
2022/02/09 21:56:57;;;;;;;7.75;4.95;;;;;;;19.49;44.86;101846.28;4988530;28;20871;-56
2022/02/09 22:20:45;;;;;;;8.25;6.43;;;;;;;19.51;44.44;101837.25;4989401;28;20057;-48
2022/02/09 22:28:14;;;;;;;9.35;6.07;;;;;;;19.52;44.49;101841.53;4988741;28;20061;-45
2022/02/09 22:49:21;;;;;;;7.85;6.57;;;;;;;19.65;43.79;101835.72;4989587;28;20469;-51
2022/02/09 22:54:39;;;;;;;7.95;6.05;;;;;;;19.77;43.35;101834.34;4983243;28;20037;-50
2022/02/09 22:57:05;;;;;;;6.93;5.22;;;;;;;19.93;42.94;101833.44;4966496;28;20122;-55
2022/02/09 22:59:42;;;;;;;8.02;5.38;;;;;;;19.96;42.81;101838.38;4977280;28;20430;-46
2022/02/09 23:02:26;;;;;;;10.10;5.57;;;;;;;19.97;42.67;101832.09;4987045;28;20054;-46
2022/02/09 23:13:06;;;;;;;8.57;5.35;;;;;;;19.82;42.21;101839.94;4958674;28;20130;-49
2022/02/09 23:15:40;;;;;;;8.57;5.15;;;;;;;19.78;41.88;101836.00;4969814;28;20034;-45
2022/02/09 23:58:54;;;;;;;5.93;4.93;;;;;;;19.41;41.69;101823.34;4987010;28;20072;-46
